CheckWX is a tool to help pilots better visualize weather data.  It is not intended as a substitute for an official pre-flight weather briefing.

00:23:42 UTC

KSQI METAR
Whiteside Co Arpt-Jos H Bittorf Field Airport
Sterling/Rockfalls, Illinois, USA
Current

28 mins ago

KSQI 162356Z AUTO 10005KT 6SM BR CLR 00/M02 A3023 RMK AO2 SLP105 T00001017 10056 20000 56009 FZRANO
Observed
Nov-16 @ 23:56 UTC
Wind
  • 100° at 5 KTS
Visibility
6 SM
Flight Rules
VFR
Conditions
Mist
Cloud Levels
  • Clear skies
Temperature
C / 32°F
Dewpoint
-2°C / 28°F
Humidity
87%
Altimeter
30.23" Hg
Pressure
1023.72 hPa
Previous

1 hour ago

KSQI 162256Z AUTO 10005KT 6SM HZ CLR 02/M01 A3023 RMK AO2 SLP106 T00171011 FZRANO
Observed
Nov-16 @ 22:56 UTC
Wind
  • 100° at 5 KTS
Visibility
6 SM
Flight Rules
VFR
Conditions
Haze
Cloud Levels
  • Clear skies
Temperature
C / 36°F
Dewpoint
-1°C / 30°F
Humidity
81%
Altimeter
30.23" Hg
Pressure
1023.72 hPa
Previous

2 hours ago

KSQI 162156Z AUTO 12007KT 9SM CLR 04/M01 A3024 RMK AO2 SLP107 T00441011
Observed
Nov-16 @ 21:56 UTC
Wind
  • 120° at 7 KTS
Visibility
9 SM
Flight Rules
VFR
Cloud Levels
  • Clear skies
Temperature
C / 39°F
Dewpoint
-1°C / 30°F
Humidity
70%
Altimeter
30.24" Hg
Pressure
1024.02 hPa